Time;durP1;ratioP1;P1;durP2;ratioP2;P2;SDS_P1;SDS_P2;PMS_P1;PMS_P2;Temp;Humidity;BMP_temperature;BMP_pressure;BME280_temperature;BME280_humidity;BME280_pressure;Samples;Min_cycle;Max_cycle;Signal;HPM_P1;HPM_P2
2022/05/22 00:00:47;;;;;;;;;;;10.60;99.90;;;;;;5006597;28;19936;-66
2022/05/22 00:03:14;;;;;;;;;;;10.60;99.90;;;;;;4997621;28;19955;-66
2022/05/22 00:05:41;;;;;;;;;;;10.70;99.90;;;;;;5001969;28;19932;-67
2022/05/22 00:08:08;;;;;;;;;;;10.90;99.90;;;;;;5005755;28;20004;-66
2022/05/22 00:10:34;;;;;;;;;;;11.00;99.90;;;;;;5002189;28;19926;-67
2022/05/22 00:13:01;;;;;;;;;;;10.90;99.90;;;;;;5008893;28;19979;-67
2022/05/22 00:15:28;;;;;;;;;;;10.80;99.90;;;;;;5007612;28;19925;-67
2022/05/22 00:17:54;;;;;;;;;;;10.60;99.90;;;;;;5008460;28;19926;-67
2022/05/22 00:20:21;;;;;;;;;;;10.40;99.90;;;;;;5006453;28;19931;-67
2022/05/22 00:22:48;;;;;;;;;;;10.20;99.90;;;;;;5010314;28;19929;-67
2022/05/22 00:25:15;;;;;;;;;;;10.10;99.90;;;;;;5007345;28;19933;-67
2022/05/22 00:27:42;;;;;;;;;;;9.90;99.90;;;;;;5009681;28;19926;-67
2022/05/22 00:30:10;;;;;;;;;;;9.70;99.90;;;;;;5009256;28;19948;-67
2022/05/22 00:32:37;;;;;;;;;;;9.50;99.90;;;;;;5004812;28;19933;-67
2022/05/22 00:35:04;;;;;;;;;;;9.40;99.90;;;;;;5007765;28;19925;-67
2022/05/22 00:37:31;;;;;;;;;;;9.30;99.90;;;;;;5007736;28;19944;-67
2022/05/22 00:39:59;;;;;;;;;;;9.20;99.90;;;;;;5008317;28;20017;-67
2022/05/22 00:42:26;;;;;;;;;;;9.10;99.90;;;;;;5009322;28;19967;-67
2022/05/22 00:44:53;;;;;;;;;;;9.10;99.90;;;;;;5002921;28;19980;-67
2022/05/22 00:47:21;;;;;;;;;;;9.00;99.90;;;;;;5006230;28;19953;-67
2022/05/22 00:49:48;;;;;;;;;;;8.90;99.90;;;;;;5008836;28;19929;-67
2022/05/22 00:52:20;;;;;;;;;;;8.80;99.90;;;;;;5005504;28;20049;-67
2022/05/22 00:54:59;;;;;;;;;;;8.70;99.90;;;;;;5004272;28;19932;-67
2022/05/22 00:57:49;;;;;;;;;;;8.70;99.90;;;;;;5012191;28;19926;-67
2022/05/22 01:00:17;;;;;;;;;;;8.70;99.90;;;;;;5009048;28;19932;-67
2022/05/22 01:05:40;;;;;;;;;;;8.50;99.90;;;;;;5008054;28;20412;-67
2022/05/22 01:08:07;;;;;;;;;;;8.50;99.90;;;;;;5009391;28;19961;-67
2022/05/22 01:10:47;;;;;;;;;;;8.50;99.90;;;;;;5006479;28;19929;-67
2022/05/22 01:13:15;;;;;;;;;;;8.50;99.90;;;;;;4999798;28;19934;-67
2022/05/22 01:15:42;;;;;;;;;;;8.50;99.90;;;;;;5009065;28;19932;-67
2022/05/22 01:18:09;;;;;;;;;;;8.50;99.90;;;;;;5004739;28;19929;-67
2022/05/22 01:20:36;;;;;;;;;;;8.50;99.90;;;;;;5008874;28;20029;-67
2022/05/22 01:23:03;;;;;;;;;;;8.60;99.90;;;;;;5009919;28;19934;-67
2022/05/22 01:25:31;;;;;;;;;;;8.70;99.90;;;;;;5006245;28;19926;-67
2022/05/22 01:27:58;;;;;;;;;;;8.70;99.90;;;;;;5003476;28;19925;-66
2022/05/22 01:30:26;;;;;;;;;;;8.70;99.90;;;;;;5006095;28;19960;-67
2022/05/22 01:32:53;;;;;;;;;;;8.70;99.90;;;;;;5007916;28;20024;-67
2022/05/22 01:35:21;;;;;;;;;;;8.70;99.90;;;;;;5010384;28;19926;-67
2022/05/22 01:37:52;;;;;;;;;;;8.80;99.90;;;;;;4999451;28;20373;-67
2022/05/22 01:40:19;;;;;;;;;;;8.80;99.90;;;;;;5009344;28;20013;-67
2022/05/22 01:42:48;;;;;;;;;;;8.80;99.90;;;;;;5011438;28;19926;-67
2022/05/22 01:45:20;;;;;;;;;;;8.80;99.90;;;;;;5001789;28;19933;-67
2022/05/22 01:47:46;;;;;;;;;;;8.80;99.90;;;;;;5010147;28;20016;-67
2022/05/22 01:50:14;;;;;;;;;;;8.70;99.90;;;;;;5006564;28;19929;-66
2022/05/22 01:52:41;;;;;;;;;;;8.70;99.90;;;;;;5008342;28;19925;-67
2022/05/22 01:55:08;;;;;;;;;;;8.70;99.90;;;;;;5006306;28;21643;-67
2022/05/22 01:57:35;;;;;;;;;;;8.90;99.90;;;;;;5008939;28;19952;-67
2022/05/22 02:00:03;;;;;;;;;;;9.10;99.90;;;;;;5010511;28;20327;-66
2022/05/22 02:02:30;;;;;;;;;;;9.40;99.90;;;;;;5007928;28;20016;-67
2022/05/22 02:04:57;;;;;;;;;;;9.50;99.90;;;;;;5002681;28;20024;-67
2022/05/22 02:10:10;;;;;;;;;;;9.70;99.90;;;;;;5006016;28;20608;-67
2022/05/22 02:12:36;;;;;;;;;;;9.70;99.90;;;;;;5005750;28;19926;-67
2022/05/22 02:15:03;;;;;;;;;;;9.60;99.90;;;;;;5004169;28;19926;-67
2022/05/22 02:17:30;;;;;;;;;;;9.50;99.90;;;;;;5003600;28;20012;-67
2022/05/22 02:19:57;;;;;;;;;;;9.40;99.90;;;;;;5004810;28;20003;-67
2022/05/22 02:22:24;;;;;;;;;;;9.30;99.90;;;;;;5007988;28;19936;-67
2022/05/22 02:24:53;;;;;;;;;;;9.20;99.90;;;;;;5013614;28;19929;-67
2022/05/22 02:27:20;;;;;;;;;;;9.10;99.90;;;;;;5010647;28;20116;-67
2022/05/22 02:29:47;;;;;;;;;;;9.00;99.90;;;;;;5009410;28;19941;-67
2022/05/22 02:32:16;;;;;;;;;;;9.00;99.90;;;;;;5005205;28;19930;-67
2022/05/22 02:34:43;;;;;;;;;;;9.00;99.90;;;;;;5009674;28;19967;-67
2022/05/22 02:37:09;;;;;;;;;;;9.20;99.90;;;;;;5004715;28;20020;-67
2022/05/22 02:39:36;;;;;;;;;;;9.20;99.90;;;;;;5006612;28;20016;-67
2022/05/22 02:42:06;;;;;;;;;;;9.20;99.90;;;;;;5002195;28;19947;-67
2022/05/22 02:44:33;;;;;;;;;;;9.10;99.90;;;;;;5008592;28;19925;-67
2022/05/22 02:46:59;;;;;;;;;;;9.00;99.90;;;;;;5009546;28;20472;-67
2022/05/22 02:49:26;;;;;;;;;;;8.90;99.90;;;;;;5005881;28;20537;-67
2022/05/22 02:51:53;;;;;;;;;;;8.80;99.90;;;;;;5011353;28;20008;-67
2022/05/22 02:54:21;;;;;;;;;;;8.60;99.90;;;;;;5005707;28;19925;-67
2022/05/22 02:56:47;;;;;;;;;;;8.40;99.90;;;;;;5003455;28;19925;-67
2022/05/22 02:59:17;;;;;;;;;;;8.30;99.90;;;;;;5004224;28;19929;-67
2022/05/22 03:01:43;;;;;;;;;;;8.20;99.90;;;;;;5005647;28;19929;-67
2022/05/22 03:04:10;;;;;;;;;;;8.20;99.90;;;;;;5004311;28;19932;-66
2022/05/22 03:06:40;;;;;;;;;;;8.10;99.90;;;;;;5002610;28;20033;-67
2022/05/22 03:09:08;;;;;;;;;;;8.00;99.90;;;;;;5008405;28;19984;-66
2022/05/22 03:11:36;;;;;;;;;;;7.90;99.90;;;;;;5022378;28;19925;-66
2022/05/22 03:14:03;;;;;;;;;;;7.90;99.90;;;;;;5008659;28;20531;-67
2022/05/22 03:16:30;;;;;;;;;;;7.90;99.90;;;;;;5009285;28;19961;-67
2022/05/22 03:18:56;;;;;;;;;;;7.80;99.90;;;;;;5005702;28;19926;-67
2022/05/22 03:21:27;;;;;;;;;;;7.80;99.90;;;;;;5006874;28;19940;-66
2022/05/22 03:23:54;;;;;;;;;;;7.70;99.90;;;;;;5009325;28;20045;-67
2022/05/22 03:26:21;;;;;;;;;;;7.70;99.90;;;;;;5007795;28;19961;-66
2022/05/22 03:28:47;;;;;;;;;;;7.80;99.90;;;;;;5009195;28;20012;-67
2022/05/22 03:31:16;;;;;;;;;;;7.80;99.90;;;;;;5002454;28;19926;-67
2022/05/22 03:33:43;;;;;;;;;;;7.90;99.90;;;;;;5005688;28;19944;-67
2022/05/22 03:36:10;;;;;;;;;;;7.90;99.90;;;;;;5003721;28;19925;-67
2022/05/22 03:38:40;;;;;;;;;;;8.00;99.90;;;;;;5007570;28;19934;-67
2022/05/22 03:41:07;;;;;;;;;;;8.20;99.90;;;;;;5007688;28;19940;-67
2022/05/22 03:43:35;;;;;;;;;;;8.20;99.90;;;;;;5007763;28;19980;-67
2022/05/22 03:46:02;;;;;;;;;;;8.30;99.90;;;;;;5008857;28;19929;-67
2022/05/22 03:48:29;;;;;;;;;;;8.30;99.90;;;;;;5008646;28;19930;-68
2022/05/22 03:50:56;;;;;;;;;;;8.30;99.90;;;;;;5009386;28;19925;-67
2022/05/22 03:53:23;;;;;;;;;;;8.20;99.90;;;;;;5006703;28;19925;-67
2022/05/22 03:55:49;;;;;;;;;;;8.10;99.90;;;;;;5002622;28;19936;-67
2022/05/22 03:58:17;;;;;;;;;;;8.10;99.90;;;;;;4998463;28;19926;-67
2022/05/22 04:00:44;;;;;;;;;;;8.10;99.90;;;;;;5001607;28;19955;-67
2022/05/22 04:03:11;;;;;;;;;;;8.10;99.90;;;;;;5001485;28;20059;-67
2022/05/22 04:05:38;;;;;;;;;;;8.10;99.90;;;;;;4995025;28;20404;-67
2022/05/22 04:08:05;;;;;;;;;;;8.10;99.90;;;;;;4993287;28;20020;-67
2022/05/22 04:10:31;;;;;;;;;;;8.10;99.90;;;;;;5007218;28;19925;-67
2022/05/22 04:12:59;;;;;;;;;;;8.10;99.90;;;;;;4998149;28;20444;-67
2022/05/22 04:15:26;;;;;;;;;;;8.20;99.90;;;;;;5009418;28;20020;-67
2022/05/22 04:17:53;;;;;;;;;;;8.30;99.90;;;;;;5007840;28;20000;-67
2022/05/22 04:20:19;;;;;;;;;;;8.40;99.90;;;;;;5007388;28;19925;-67
2022/05/22 04:25:31;;;;;;;;;;;8.70;99.90;;;;;;5003235;28;20294;-67
2022/05/22 04:27:58;;;;;;;;;;;8.90;99.90;;;;;;5006230;28;19957;-68
2022/05/22 04:30:24;;;;;;;;;;;9.10;99.90;;;;;;5003435;28;20407;-68
2022/05/22 04:32:52;;;;;;;;;;;9.20;99.90;;;;;;5009294;28;19932;-68
2022/05/22 04:35:19;;;;;;;;;;;9.40;99.90;;;;;;4995879;28;20016;-68
2022/05/22 04:37:47;;;;;;;;;;;9.70;99.90;;;;;;5004810;28;19943;-68
2022/05/22 04:40:14;;;;;;;;;;;10.80;99.90;;;;;;5009860;28;19937;-65
2022/05/22 04:42:41;;;;;;;;;;;12.20;99.90;;;;;;5005739;28;19932;-66
2022/05/22 04:45:09;;;;;;;;;;;13.40;99.90;;;;;;5010864;28;19961;-65
2022/05/22 04:47:37;;;;;;;;;;;14.70;99.90;;;;;;5008570;28;19932;-66
2022/05/22 04:50:05;;;;;;;;;;;15.80;99.90;;;;;;5003550;28;19937;-66
2022/05/22 04:52:33;;;;;;;;;;;16.70;99.90;;;;;;5005673;28;19945;-65
2022/05/22 04:55:00;;;;;;;;;;;17.30;99.90;;;;;;5007131;28;19932;-65
2022/05/22 04:57:26;;;;;;;;;;;18.20;99.90;;;;;;5004648;28;20591;-65
2022/05/22 04:59:53;;;;;;;;;;;18.90;99.90;;;;;;5005074;28;19933;-65
2022/05/22 05:02:21;;;;;;;;;;;19.30;99.90;;;;;;5009573;28;19929;-66
2022/05/22 05:04:48;;;;;;;;;;;19.30;99.90;;;;;;5006030;28;19933;-65
2022/05/22 05:07:14;;;;;;;;;;;19.40;99.90;;;;;;5000373;28;20116;-66
2022/05/22 05:09:41;;;;;;;;;;;19.60;99.90;;;;;;5008356;28;19926;-65
2022/05/22 05:12:09;;;;;;;;;;;19.80;99.90;;;;;;4996726;28;19957;-66
2022/05/22 05:14:37;;;;;;;;;;;19.80;99.90;;;;;;5001081;28;19932;-66
2022/05/22 05:17:08;;;;;;;;;;;19.90;99.90;;;;;;5004816;28;20024;-65
2022/05/22 05:19:35;;;;;;;;;;;20.10;99.90;;;;;;5002991;28;19941;-66
2022/05/22 05:22:02;;;;;;;;;;;20.20;99.90;;;;;;5001089;28;19989;-66
2022/05/22 05:24:29;;;;;;;;;;;20.30;99.90;;;;;;5007166;28;19934;-66
2022/05/22 05:26:56;;;;;;;;;;;20.60;99.90;;;;;;5003522;28;20020;-65
2022/05/22 05:29:42;;;;;;;;;;;21.00;99.90;;;;;;5003429;28;20380;-65
2022/05/22 05:32:09;;;;;;;;;;;21.00;99.90;;;;;;5007278;28;20544;-66
2022/05/22 05:34:35;;;;;;;;;;;21.00;99.90;;;;;;5005240;28;19930;-66
2022/05/22 05:37:02;;;;;;;;;;;21.30;99.90;;;;;;5004312;28;19926;-65
2022/05/22 05:39:29;;;;;;;;;;;21.30;99.90;;;;;;5004270;28;19930;-65
2022/05/22 05:41:56;;;;;;;;;;;21.50;99.90;;;;;;5009234;28;20016;-65
2022/05/22 05:44:23;;;;;;;;;;;21.20;99.90;;;;;;5009375;28;19925;-65
2022/05/22 05:46:50;;;;;;;;;;;21.20;99.90;;;;;;5006079;28;20311;-65
2022/05/22 05:49:17;;;;;;;;;;;21.00;99.90;;;;;;5001914;28;20352;-66
2022/05/22 05:51:43;;;;;;;;;;;21.20;99.90;;;;;;5005789;28;19956;-65
2022/05/22 05:54:10;;;;;;;;;;;21.80;99.90;;;;;;5007447;28;19925;-66
2022/05/22 05:56:40;;;;;;;;;;;22.40;99.90;;;;;;5007604;28;19939;-66
2022/05/22 05:59:08;;;;;;;;;;;22.80;99.90;;;;;;5006323;28;19948;-66
2022/05/22 06:01:35;;;;;;;;;;;23.20;99.90;;;;;;5006091;28;19970;-66
2022/05/22 06:04:02;;;;;;;;;;;23.60;99.90;;;;;;5006067;28;19925;-66
2022/05/22 06:06:29;;;;;;;;;;;23.40;99.90;;;;;;5006718;28;19933;-66
2022/05/22 06:08:56;;;;;;;;;;;23.30;99.90;;;;;;5014905;28;19930;-66
2022/05/22 06:11:23;;;;;;;;;;;23.50;99.90;;;;;;5000721;28;19933;-65
2022/05/22 06:13:53;;;;;;;;;;;22.90;99.90;;;;;;5001482;28;19926;-66
2022/05/22 06:16:20;;;;;;;;;;;23.10;99.90;;;;;;5005623;28;19926;-66
2022/05/22 06:18:47;;;;;;;;;;;23.00;99.90;;;;;;5002888;28;19930;-64
2022/05/22 06:21:15;;;;;;;;;;;22.90;99.90;;;;;;5009615;28;19933;-65
2022/05/22 06:23:41;;;;;;;;;;;22.50;99.90;;;;;;5004907;28;19940;-65
2022/05/22 06:26:09;;;;;;;;;;;22.60;99.90;;;;;;5003193;28;20388;-66
2022/05/22 06:28:36;;;;;;;;;;;22.80;99.90;;;;;;4979343;28;20032;-66
2022/05/22 06:31:04;;;;;;;;;;;23.30;99.90;;;;;;5003195;28;19929;-66
2022/05/22 06:33:31;;;;;;;;;;;23.70;99.90;;;;;;5005782;28;19930;-65
2022/05/22 06:35:58;;;;;;;;;;;24.10;99.90;;;;;;5004065;28;19933;-66
2022/05/22 06:41:11;;;;;;;;;;;24.90;99.90;;;;;;5005166;28;19933;-66
2022/05/22 06:43:38;;;;;;;;;;;25.70;99.90;;;;;;5001956;28;19932;-66
2022/05/22 06:46:05;;;;;;;;;;;25.80;99.90;;;;;;5007826;28;20376;-66
2022/05/22 06:48:32;;;;;;;;;;;25.70;99.90;;;;;;5003426;28;20016;-67
2022/05/22 06:50:58;;;;;;;;;;;25.30;99.90;;;;;;4999773;28;19930;-67
2022/05/22 06:53:25;;;;;;;;;;;25.50;99.90;;;;;;5007979;28;19933;-64
2022/05/22 06:55:52;;;;;;;;;;;26.00;99.90;;;;;;5005168;28;20466;-65
2022/05/22 06:58:19;;;;;;;;;;;25.90;99.90;;;;;;5006057;28;20020;-64
2022/05/22 07:00:50;;;;;;;;;;;25.60;99.90;;;;;;5005429;28;20016;-66
2022/05/22 07:03:16;;;;;;;;;;;25.90;99.90;;;;;;5001877;28;19937;-66
2022/05/22 07:05:43;;;;;;;;;;;26.70;99.90;;;;;;5001346;28;20565;-66
2022/05/22 07:08:10;;;;;;;;;;;27.00;99.90;;;;;;4997407;28;19980;-67
2022/05/22 07:13:25;;;;;;;;;;;26.60;99.90;;;;;;5003656;28;19929;-67
2022/05/22 07:16:04;;;;;;;;;;;26.40;99.90;;;;;;5007416;28;19925;-65
2022/05/22 07:18:49;;;;;;;;;;;26.30;99.90;;;;;;5004794;28;19933;-66
2022/05/22 07:21:16;;;;;;;;;;;26.70;99.90;;;;;;5007523;28;21243;-66
2022/05/22 07:23:43;;;;;;;;;;;26.90;99.90;;;;;;5008433;28;19932;-65
2022/05/22 07:26:09;;;;;;;;;;;27.20;99.90;;;;;;5000158;28;19925;-66
2022/05/22 07:28:36;;;;;;;;;;;27.60;99.90;;;;;;4995400;28;19926;-66
2022/05/22 07:31:02;;;;;;;;;;;27.50;99.90;;;;;;5004658;28;20004;-65
2022/05/22 07:33:32;;;;;;;;;;;26.90;99.90;;;;;;5005148;28;19951;-66
2022/05/22 07:35:59;;;;;;;;;;;26.70;99.90;;;;;;5001066;28;19925;-65
2022/05/22 07:38:26;;;;;;;;;;;26.50;99.90;;;;;;4993644;28;19936;-65
2022/05/22 07:40:53;;;;;;;;;;;25.80;99.90;;;;;;5006773;28;19926;-66
2022/05/22 07:43:19;;;;;;;;;;;25.90;99.90;;;;;;5008796;28;20388;-66
2022/05/22 07:45:46;;;;;;;;;;;26.20;99.90;;;;;;5001163;28;19926;-66
2022/05/22 07:48:13;;;;;;;;;;;26.20;99.90;;;;;;5010241;28;20343;-66
2022/05/22 07:50:40;;;;;;;;;;;26.60;99.90;;;;;;4994798;28;19926;-66
2022/05/22 07:53:10;;;;;;;;;;;27.20;99.90;;;;;;5005141;28;19925;-65
2022/05/22 07:55:36;;;;;;;;;;;27.80;99.90;;;;;;5008537;28;19929;-66
2022/05/22 07:58:06;;;;;;;;;;;27.80;99.40;;;;;;5009203;28;19925;-65
2022/05/22 08:00:33;;;;;;;;;;;27.90;99.90;;;;;;5007845;28;19972;-65
2022/05/22 08:03:06;;;;;;;;;;;27.40;99.10;;;;;;5006120;28;19925;-66
2022/05/22 08:05:38;;;;;;;;;;;26.40;99.40;;;;;;5009168;28;19925;-64
2022/05/22 08:08:05;;;;;;;;;;;25.30;99.90;;;;;;5007004;28;19972;-66
2022/05/22 08:10:32;;;;;;;;;;;25.20;99.90;;;;;;5012756;28;19925;-66
2022/05/22 08:12:59;;;;;;;;;;;26.00;99.90;;;;;;5002019;28;20591;-66
2022/05/22 08:15:30;;;;;;;;;;;25.90;99.90;;;;;;4998971;28;19932;-66
2022/05/22 08:17:57;;;;;;;;;;;26.50;99.90;;;;;;5009995;28;19960;-67
2022/05/22 08:20:24;;;;;;;;;;;27.00;99.40;;;;;;5006076;28;19925;-65
2022/05/22 08:22:57;;;;;;;;;;;26.70;99.90;;;;;;5017333;28;20361;-65
2022/05/22 08:25:25;;;;;;;;;;;27.00;99.90;;;;;;5011120;28;19925;-67
2022/05/22 08:27:52;;;;;;;;;;;26.80;99.40;;;;;;5003348;28;20024;-66
2022/05/22 08:30:20;;;;;;;;;;;26.90;99.20;;;;;;5015919;28;20020;-67
2022/05/22 08:32:50;;;;;;;;;;;26.80;98.20;;;;;;5011025;28;19925;-65
2022/05/22 08:35:19;;;;;;;;;;;27.00;99.80;;;;;;5008664;28;19925;-67
2022/05/22 08:37:45;;;;;;;;;;;27.30;99.90;;;;;;5008417;28;19925;-65
2022/05/22 08:40:15;;;;;;;;;;;27.40;98.30;;;;;;5013140;28;19925;-65
2022/05/22 08:42:55;;;;;;;;;;;27.40;98.60;;;;;;5012140;28;19934;-65
2022/05/22 08:45:48;;;;;;;;;;;27.60;97.50;;;;;;5005808;28;19925;-65
2022/05/22 08:48:29;;;;;;;;;;;28.00;98.00;;;;;;5003904;28;19935;-66
2022/05/22 08:50:57;;;;;;;;;;;27.50;97.10;;;;;;5014085;28;20419;-65
2022/05/22 08:53:29;;;;;;;;;;;27.30;97.40;;;;;;5002431;28;19926;-66
2022/05/22 08:59:11;;;;;;;;;;;27.50;97.40;;;;;;5007622;28;19932;-66
2022/05/22 09:01:43;;;;;;;;;;;27.60;96.70;;;;;;4988217;28;19933;-65
2022/05/22 09:04:18;;;;;;;;;;;26.90;96.40;;;;;;4988224;28;19936;-65
2022/05/22 09:06:50;;;;;;;;;;;26.90;96.10;;;;;;4978539;28;20325;-66
2022/05/22 09:09:17;;;;;;;;;;;26.60;96.90;;;;;;4982133;28;20009;-65
2022/05/22 09:11:53;;;;;;;;;;;26.80;96.30;;;;;;4976949;28;19932;-66
2022/05/22 09:14:26;;;;;;;;;;;27.50;97.40;;;;;;4980386;28;19961;-66
2022/05/22 09:17:12;;;;;;;;;;;28.20;97.20;;;;;;4984168;28;19932;-66
2022/05/22 09:19:50;;;;;;;;;;;28.80;96.40;;;;;;4982548;28;19934;-66
2022/05/22 09:22:23;;;;;;;;;;;29.40;95.00;;;;;;4987741;28;19929;-66
2022/05/22 09:25:07;;;;;;;;;;;29.40;94.70;;;;;;4984728;28;20286;-66
2022/05/22 09:27:46;;;;;;;;;;;29.00;93.90;;;;;;4979294;28;19938;-67
2022/05/22 09:30:12;;;;;;;;;;;29.00;93.70;;;;;;4988303;28;19937;-66
2022/05/22 09:32:51;;;;;;;;;;;29.40;94.10;;;;;;4987304;28;19993;-67
2022/05/22 09:35:30;;;;;;;;;;;29.60;94.50;;;;;;4989092;28;19978;-65
2022/05/22 09:38:16;;;;;;;;;;;29.30;93.20;;;;;;4991598;28;20008;-65
2022/05/22 09:40:47;;;;;;;;;;;29.20;93.50;;;;;;5042599;28;19931;-66
2022/05/22 09:43:32;;;;;;;;;;;28.80;93.30;;;;;;5011108;28;19935;-66
2022/05/22 09:45:59;;;;;;;;;;;29.00;93.50;;;;;;5005914;28;19925;-67
2022/05/22 09:48:35;;;;;;;;;;;28.90;93.00;;;;;;5005209;28;20401;-66
2022/05/22 09:51:21;;;;;;;;;;;28.90;94.00;;;;;;5007498;28;19939;-67
2022/05/22 09:54:03;;;;;;;;;;;29.50;94.00;;;;;;5005344;28;19949;-67
2022/05/22 09:56:50;;;;;;;;;;;29.30;92.80;;;;;;4996849;28;19933;-65
2022/05/22 09:59:22;;;;;;;;;;;28.60;91.90;;;;;;5008860;28;20024;-66
2022/05/22 10:01:52;;;;;;;;;;;27.80;92.60;;;;;;4998715;28;19929;-66
2022/05/22 10:04:20;;;;;;;;;;;27.40;93.10;;;;;;5003332;28;20292;-66
2022/05/22 10:06:54;;;;;;;;;;;28.00;93.40;;;;;;5014940;28;19933;-65
2022/05/22 10:09:28;;;;;;;;;;;27.20;94.20;;;;;;5005670;28;19926;-66
2022/05/22 10:11:57;;;;;;;;;;;26.80;93.70;;;;;;5003146;28;20963;-65
2022/05/22 10:14:47;;;;;;;;;;;26.80;93.90;;;;;;5006670;28;19932;-65
2022/05/22 10:17:23;;;;;;;;;;;26.80;94.40;;;;;;5000341;28;19925;-66
2022/05/22 10:19:55;;;;;;;;;;;27.10;94.80;;;;;;5006697;28;20012;-65
2022/05/22 10:22:31;;;;;;;;;;;27.60;94.40;;;;;;5006090;28;19933;-65
2022/05/22 10:25:15;;;;;;;;;;;28.20;93.40;;;;;;5007704;28;20028;-65
2022/05/22 10:27:46;;;;;;;;;;;28.50;93.60;;;;;;4993106;28;20491;-66
2022/05/22 10:30:13;;;;;;;;;;;28.80;93.30;;;;;;5007404;28;20484;-65
2022/05/22 10:32:39;;;;;;;;;;;29.10;92.30;;;;;;5004311;28;19926;-67
2022/05/22 10:35:09;;;;;;;;;;;28.70;93.00;;;;;;4997467;28;20312;-67
2022/05/22 10:37:51;;;;;;;;;;;29.30;92.40;;;;;;5006532;28;19940;-67
2022/05/22 10:40:20;;;;;;;;;;;29.30;93.00;;;;;;4999718;28;19939;-65
2022/05/22 10:42:52;;;;;;;;;;;29.60;92.90;;;;;;5005055;28;20017;-66
2022/05/22 10:45:34;;;;;;;;;;;30.20;92.50;;;;;;5002406;28;19929;-65
2022/05/22 10:48:10;;;;;;;;;;;30.20;92.10;;;;;;5006010;28;19960;-65
2022/05/22 10:50:50;;;;;;;;;;;30.00;91.50;;;;;;5001561;28;19945;-66
2022/05/22 10:53:29;;;;;;;;;;;29.80;91.70;;;;;;5006401;28;19940;-66
2022/05/22 10:56:00;;;;;;;;;;;30.10;91.60;;;;;;5013912;28;19925;-66
2022/05/22 10:58:28;;;;;;;;;;;29.30;91.20;;;;;;5003073;28;20303;-66
2022/05/22 11:01:00;;;;;;;;;;;28.30;91.80;;;;;;5008405;28;19925;-66
2022/05/22 11:03:28;;;;;;;;;;;28.20;91.60;;;;;;4997585;28;19940;-64
2022/05/22 11:05:55;;;;;;;;;;;27.80;92.80;;;;;;5005391;28;19941;-66
2022/05/22 11:08:30;;;;;;;;;;;28.00;93.50;;;;;;5003182;28;19925;-64
2022/05/22 11:11:01;;;;;;;;;;;27.70;92.70;;;;;;5000827;28;19926;-64
2022/05/22 11:13:27;;;;;;;;;;;27.80;92.60;;;;;;5000284;28;19929;-65
2022/05/22 11:15:54;;;;;;;;;;;27.70;92.80;;;;;;5006722;28;19925;-66
2022/05/22 11:18:22;;;;;;;;;;;27.70;93.60;;;;;;5005512;28;19932;-65
2022/05/22 11:20:52;;;;;;;;;;;27.60;92.40;;;;;;5006905;28;20019;-65
2022/05/22 11:23:38;;;;;;;;;;;27.20;92.30;;;;;;5003685;28;20020;-66
2022/05/22 11:26:11;;;;;;;;;;;27.10;92.90;;;;;;5000233;28;19940;-65
2022/05/22 11:29:03;;;;;;;;;;;26.80;92.90;;;;;;5001274;28;19947;-66
2022/05/22 11:31:41;;;;;;;;;;;27.20;92.50;;;;;;5005527;28;20334;-64
2022/05/22 11:34:14;;;;;;;;;;;27.40;92.40;;;;;;4999941;28;19932;-64
2022/05/22 11:37:00;;;;;;;;;;;27.50;92.30;;;;;;5005888;28;19991;-66
2022/05/22 11:39:50;;;;;;;;;;;27.80;92.40;;;;;;5005455;28;19936;-65
2022/05/22 11:42:21;;;;;;;;;;;28.50;92.20;;;;;;5000617;28;19933;-64
2022/05/22 11:44:48;;;;;;;;;;;28.80;92.20;;;;;;5007392;28;20024;-64
2022/05/22 11:47:29;;;;;;;;;;;29.10;92.60;;;;;;4997939;28;20462;-64
2022/05/22 11:50:15;;;;;;;;;;;28.60;92.30;;;;;;5004440;28;19929;-65
2022/05/22 11:52:59;;;;;;;;;;;28.20;92.30;;;;;;5003414;28;20403;-65
2022/05/22 11:55:40;;;;;;;;;;;28.00;92.10;;;;;;5007305;28;19984;-65
2022/05/22 11:58:09;;;;;;;;;;;27.50;92.80;;;;;;5001911;28;19967;-65
2022/05/22 12:00:49;;;;;;;;;;;27.60;92.90;;;;;;5002836;28;20039;-65
2022/05/22 12:03:34;;;;;;;;;;;27.90;93.30;;;;;;5000819;28;19929;-65
2022/05/22 12:06:05;;;;;;;;;;;28.30;92.50;;;;;;5000985;28;19929;-67
2022/05/22 12:08:41;;;;;;;;;;;28.40;92.60;;;;;;5004213;28;19925;-65
2022/05/22 12:11:26;;;;;;;;;;;28.80;92.40;;;;;;5000457;28;19934;-64
2022/05/22 12:13:58;;;;;;;;;;;28.20;92.90;;;;;;5002992;28;19932;-65
2022/05/22 12:16:28;;;;;;;;;;;28.20;93.10;;;;;;5000728;28;19929;-65
2022/05/22 12:19:14;;;;;;;;;;;28.40;92.20;;;;;;5005279;28;19932;-66
2022/05/22 12:22:16;;;;;;;;;;;28.00;92.70;;;;;;5005294;28;20405;-65
2022/05/22 12:24:59;;;;;;;;;;;28.10;92.30;;;;;;4941254;28;20007;-65
2022/05/22 12:27:30;;;;;;;;;;;28.30;92.60;;;;;;4997059;28;20352;-65
2022/05/22 12:30:02;;;;;;;;;;;28.40;92.30;;;;;;4996655;28;19935;-66
2022/05/22 12:32:29;;;;;;;;;;;28.60;91.90;;;;;;4999961;28;19976;-67
2022/05/22 12:34:58;;;;;;;;;;;28.60;92.00;;;;;;4998104;28;19933;-66
2022/05/22 12:37:29;;;;;;;;;;;28.50;92.30;;;;;;5001002;28;20937;-65
2022/05/22 12:40:04;;;;;;;;;;;28.30;92.20;;;;;;5008738;28;19935;-65
2022/05/22 12:42:32;;;;;;;;;;;28.20;92.30;;;;;;5007119;28;19932;-65
2022/05/22 12:45:00;;;;;;;;;;;28.50;92.60;;;;;;5003838;28;20009;-65
2022/05/22 12:47:33;;;;;;;;;;;28.70;92.10;;;;;;5007445;28;19943;-65
2022/05/22 12:50:05;;;;;;;;;;;28.20;92.10;;;;;;5006522;28;19953;-64
2022/05/22 12:52:32;;;;;;;;;;;27.90;92.60;;;;;;5006713;28;20388;-66
2022/05/22 12:55:02;;;;;;;;;;;27.80;92.90;;;;;;5007525;28;19933;-66
2022/05/22 12:57:29;;;;;;;;;;;27.80;92.20;;;;;;5004230;28;19930;-65
2022/05/22 12:59:57;;;;;;;;;;;28.00;92.20;;;;;;5002810;28;19933;-64
2022/05/22 13:02:36;;;;;;;;;;;27.70;92.30;;;;;;5002980;28;20037;-65
2022/05/22 13:05:14;;;;;;;;;;;27.40;92.80;;;;;;5005038;28;19925;-65
2022/05/22 13:07:42;;;;;;;;;;;27.40;92.80;;;;;;5003053;28;20443;-65
2022/05/22 13:10:17;;;;;;;;;;;27.40;92.10;;;;;;5008691;28;19933;-65
2022/05/22 13:12:49;;;;;;;;;;;27.50;92.80;;;;;;5003095;28;19939;-64
2022/05/22 13:15:22;;;;;;;;;;;27.60;92.20;;;;;;4998847;28;20669;-64
2022/05/22 13:17:51;;;;;;;;;;;27.40;92.20;;;;;;5009071;28;19929;-64
2022/05/22 13:20:22;;;;;;;;;;;27.40;92.70;;;;;;5028694;28;20299;-65
2022/05/22 13:23:01;;;;;;;;;;;27.50;92.30;;;;;;5001106;28;20094;-65
2022/05/22 13:25:42;;;;;;;;;;;27.20;91.90;;;;;;5000398;28;19925;-64
2022/05/22 13:28:21;;;;;;;;;;;27.20;92.70;;;;;;5003224;28;19983;-65
2022/05/22 13:30:53;;;;;;;;;;;27.40;92.30;;;;;;5010704;28;19975;-64
2022/05/22 13:33:20;;;;;;;;;;;27.80;92.50;;;;;;5009595;28;19968;-64
2022/05/22 13:36:09;;;;;;;;;;;28.00;91.80;;;;;;5027511;28;20394;-65
2022/05/22 13:38:38;;;;;;;;;;;28.00;92.20;;;;;;5018474;28;19933;-65
2022/05/22 13:41:17;;;;;;;;;;;27.90;91.70;;;;;;5006053;28;19926;-64
2022/05/22 13:44:02;;;;;;;;;;;28.10;92.00;;;;;;5005562;28;19926;-65
2022/05/22 13:46:44;;;;;;;;;;;28.00;91.70;;;;;;5001639;28;19933;-65
2022/05/22 13:49:38;;;;;;;;;;;28.30;92.00;;;;;;5007233;28;20013;-65
2022/05/22 13:52:34;;;;;;;;;;;29.10;92.10;;;;;;4993561;28;19926;-66
2022/05/22 13:55:09;;;;;;;;;;;29.40;91.50;;;;;;5008722;28;19925;-64
2022/05/22 13:57:38;;;;;;;;;;;29.10;91.60;;;;;;4993567;28;19929;-65
2022/05/22 14:00:07;;;;;;;;;;;29.20;91.10;;;;;;5006184;28;19995;-66
2022/05/22 14:02:55;;;;;;;;;;;29.90;90.80;;;;;;5006398;28;19932;-64
2022/05/22 14:05:28;;;;;;;;;;;30.30;91.10;;;;;;5001605;28;19980;-64
2022/05/22 14:07:55;;;;;;;;;;;30.10;90.60;;;;;;4997633;28;19937;-66
2022/05/22 14:10:32;;;;;;;;;;;30.50;90.50;;;;;;4996385;28;20044;-65
2022/05/22 14:13:09;;;;;;;;;;;31.60;90.40;;;;;;4998495;28;19933;-66
2022/05/22 14:15:36;;;;;;;;;;;32.40;88.80;;;;;;5003499;28;20569;-65
2022/05/22 14:18:16;;;;;;;;;;;32.90;88.00;;;;;;5006596;28;19936;-64
2022/05/22 14:20:44;;;;;;;;;;;33.10;87.00;;;;;;5008821;28;19926;-64
2022/05/22 14:23:11;;;;;;;;;;;33.20;86.70;;;;;;5006785;28;19934;-65
2022/05/22 14:25:39;;;;;;;;;;;32.80;85.90;;;;;;5004097;28;19925;-65
2022/05/22 14:28:06;;;;;;;;;;;32.30;86.30;;;;;;4998360;28;19926;-65
2022/05/22 14:30:34;;;;;;;;;;;32.10;86.50;;;;;;5006496;28;19931;-64
2022/05/22 14:33:20;;;;;;;;;;;31.40;87.60;;;;;;5004254;28;20643;-65
2022/05/22 14:35:51;;;;;;;;;;;30.00;88.20;;;;;;5007127;28;19929;-64
2022/05/22 14:38:22;;;;;;;;;;;29.00;90.00;;;;;;5005384;28;19929;-65
2022/05/22 14:40:49;;;;;;;;;;;28.40;90.60;;;;;;5005490;28;19925;-62
2022/05/22 14:43:17;;;;;;;;;;;27.80;91.30;;;;;;4989137;28;19931;-64
2022/05/22 14:45:50;;;;;;;;;;;27.10;91.20;;;;;;4998660;28;19934;-65
2022/05/22 14:48:19;;;;;;;;;;;27.10;91.80;;;;;;5003318;28;19941;-65
2022/05/22 14:50:48;;;;;;;;;;;27.70;92.10;;;;;;5006180;28;19929;-65
2022/05/22 14:53:19;;;;;;;;;;;28.60;91.60;;;;;;4999520;28;19944;-66
2022/05/22 14:55:48;;;;;;;;;;;28.70;91.30;;;;;;5000172;28;19929;-64
2022/05/22 14:58:24;;;;;;;;;;;28.40;90.60;;;;;;4999454;28;19929;-65